Time;durP1;ratioP1;P1;durP2;ratioP2;P2;SDS_P1;SDS_P2;PMS_P1;PMS_P2;Temp;Humidity;BMP_temperature;BMP_pressure;BME280_temperature;BME280_humidity;BME280_pressure;Samples;Min_cycle;Max_cycle;Signal;HPM_P1;HPM_P2
2022/11/14 00:00:13;;;;;;;19.40;13.57;;;3.30;99.90;;;;;;5030286;28;20195;-77
2022/11/14 00:02:39;;;;;;;21.60;13.37;;;3.30;99.90;;;;;;5030487;28;20491;-77
2022/11/14 00:05:07;;;;;;;17.45;12.32;;;3.20;99.90;;;;;;5028748;28;20445;-77
2022/11/14 00:07:33;;;;;;;18.40;12.97;;;3.10;99.90;;;;;;5028941;28;20196;-78
2022/11/14 00:09:59;;;;;;;20.85;13.82;;;3.10;99.90;;;;;;5028175;28;20452;-78
2022/11/14 00:12:25;;;;;;;21.97;14.10;;;3.10;99.90;;;;;;5028573;28;20196;-77
2022/11/14 00:14:51;;;;;;;22.00;14.00;;;3.20;99.90;;;;;;5012253;28;20825;-77
2022/11/14 00:17:17;;;;;;;19.03;13.17;;;3.10;99.90;;;;;;5028703;28;20602;-76
2022/11/14 00:19:43;;;;;;;16.85;10.27;;;3.40;99.90;;;;;;5012160;28;20211;-77
2022/11/14 00:22:09;;;;;;;14.98;10.95;;;3.20;99.90;;;;;;4995579;28;21098;-77
2022/11/14 00:24:34;;;;;;;14.70;10.83;;;3.10;99.90;;;;;;5011787;28;20208;-77
2022/11/14 00:27:00;;;;;;;23.63;12.90;;;3.30;99.90;;;;;;5011764;28;20688;-77
2022/11/14 00:29:26;;;;;;;19.60;12.37;;;3.10;99.90;;;;;;5027779;28;20192;-77
2022/11/14 00:31:52;;;;;;;22.33;14.53;;;3.00;99.90;;;;;;5028121;28;20240;-77
2022/11/14 00:34:20;;;;;;;22.03;14.57;;;3.10;99.90;;;;;;5027748;28;20756;-78
2022/11/14 00:36:46;;;;;;;19.50;12.93;;;3.00;99.90;;;;;;5027811;28;20242;-77
2022/11/14 00:39:13;;;;;;;19.60;13.90;;;3.00;99.90;;;;;;5011138;28;20653;-77
2022/11/14 00:41:39;;;;;;;24.50;14.50;;;3.00;99.90;;;;;;5027145;28;20191;-77
2022/11/14 00:44:05;;;;;;;21.10;13.33;;;3.10;99.90;;;;;;5011056;28;20461;-77
2022/11/14 00:46:31;;;;;;;23.20;14.13;;;3.10;99.90;;;;;;5027871;28;20488;-77
2022/11/14 00:48:56;;;;;;;23.27;14.10;;;3.10;99.90;;;;;;5027546;28;20459;-77
2022/11/14 00:51:22;;;;;;;20.43;13.30;;;3.00;99.90;;;;;;5011364;28;20190;-78
2022/11/14 00:53:48;;;;;;;21.53;13.17;;;3.10;99.90;;;;;;5010969;28;20281;-77
2022/11/14 00:56:13;;;;;;;23.10;14.87;;;3.10;99.90;;;;;;5027395;28;20192;-77
2022/11/14 00:58:39;;;;;;;20.23;13.37;;;3.10;99.90;;;;;;5010812;28;20586;-77
2022/11/14 01:01:05;;;;;;;20.47;14.17;;;3.10;99.90;;;;;;5027597;28;20195;-78
2022/11/14 01:03:31;;;;;;;21.07;13.97;;;3.00;99.90;;;;;;4994730;28;20659;-78
2022/11/14 01:05:56;;;;;;;25.27;14.70;;;2.90;99.90;;;;;;5027101;28;20295;-77
2022/11/14 01:08:22;;;;;;;42.20;14.60;;;2.80;99.90;;;;;;5027011;28;20529;-78
2022/11/14 01:10:49;;;;;;;20.70;13.67;;;2.80;99.90;;;;;;5010789;28;20650;-77
2022/11/14 01:13:16;;;;;;;20.58;13.05;;;3.00;99.90;;;;;;5027598;28;20190;-77
2022/11/14 01:15:44;;;;;;;18.85;12.35;;;2.70;99.90;;;;;;5010609;28;20765;-77
2022/11/14 01:18:12;;;;;;;16.40;11.95;;;2.70;99.90;;;;;;5010753;28;20728;-78
2022/11/14 01:20:39;;;;;;;18.52;12.13;;;2.70;99.90;;;;;;5027422;28;20666;-77
2022/11/14 01:23:06;;;;;;;20.60;13.02;;;2.60;99.90;;;;;;5010701;28;20290;-77
2022/11/14 01:25:34;;;;;;;21.47;13.70;;;2.70;99.90;;;;;;5028674;28;20751;-77
2022/11/14 01:28:00;;;;;;;25.70;14.57;;;2.60;99.90;;;;;;4994668;28;20514;-77
2022/11/14 01:30:25;;;;;;;21.90;13.50;;;2.70;99.90;;;;;;5010445;28;20290;-77
2022/11/14 01:32:51;;;;;;;20.07;12.97;;;2.50;99.90;;;;;;5010632;28;20193;-77
2022/11/14 01:35:17;;;;;;;22.63;13.83;;;2.60;99.90;;;;;;5026863;28;20211;-77
2022/11/14 01:37:42;;;;;;;20.20;12.53;;;2.60;99.90;;;;;;5026284;28;20215;-77
2022/11/14 01:40:08;;;;;;;21.17;13.20;;;2.70;99.90;;;;;;4994445;28;20193;-77
2022/11/14 01:42:34;;;;;;;23.02;13.68;;;2.70;99.90;;;;;;5010408;28;20192;-78
2022/11/14 01:45:00;;;;;;;23.43;14.73;;;2.70;99.90;;;;;;5027089;28;20215;-78
2022/11/14 01:47:30;;;;;;;18.57;13.03;;;2.60;99.90;;;;;;5028507;28;20190;-78
2022/11/14 01:50:06;;;;;;;21.60;14.23;;;2.60;99.90;;;;;;5011174;28;20677;-78
2022/11/14 01:52:36;;;;;;;20.70;13.38;;;2.60;99.90;;;;;;5011585;28;20199;-77
2022/11/14 01:55:05;;;;;;;21.17;13.50;;;2.60;99.90;;;;;;4994478;28;21058;-77
2022/11/14 01:57:49;;;;;;;20.15;13.82;;;2.50;99.90;;;;;;5027046;28;20187;-77
2022/11/14 02:00:15;;;;;;;41.57;21.50;;;2.70;99.90;;;;;;5010955;28;20224;-77
2022/11/14 02:02:42;;;;;;;32.33;17.13;;;2.50;99.90;;;;;;4994900;28;20422;-77
2022/11/14 02:05:13;;;;;;;24.65;15.40;;;2.40;99.90;;;;;;5027054;28;20753;-77
2022/11/14 02:07:40;;;;;;;21.48;13.57;;;2.30;99.90;;;;;;5010842;28;20270;-77
2022/11/14 02:10:14;;;;;;;19.52;12.50;;;2.30;99.90;;;;;;5026513;28;20291;-77
2022/11/14 02:12:40;;;;;;;24.92;14.40;;;2.20;99.90;;;;;;5026825;28;20186;-78
2022/11/14 02:15:08;;;;;;;69.07;34.38;;;2.20;99.90;;;;;;5010046;28;20716;-78
2022/11/14 02:17:34;;;;;;;64.65;29.52;;;2.20;99.90;;;;;;5025935;28;20273;-77
2022/11/14 02:20:09;;;;;;;34.78;19.85;;;2.20;99.90;;;;;;5026434;28;20225;-77
2022/11/14 02:22:35;;;;;;;21.85;13.40;;;2.10;99.90;;;;;;5026649;28;20186;-78
2022/11/14 02:25:01;;;;;;;23.00;13.93;;;2.10;99.90;;;;;;5026200;28;20749;-78
2022/11/14 02:27:27;;;;;;;17.63;12.30;;;2.20;99.90;;;;;;5010157;28;20806;-77
2022/11/14 02:29:52;;;;;;;18.23;12.37;;;2.10;99.90;;;;;;5026584;28;20425;-78
2022/11/14 02:32:18;;;;;;;22.60;13.17;;;2.20;99.90;;;;;;5027794;28;20202;-78
2022/11/14 02:34:43;;;;;;;22.50;12.50;;;2.20;99.90;;;;;;5009951;28;20210;-78
2022/11/14 02:37:09;;;;;;;19.03;13.47;;;2.30;99.90;;;;;;5010323;28;20670;-78
2022/11/14 02:39:35;;;;;;;20.93;13.90;;;2.20;99.90;;;;;;4993644;28;20283;-78
2022/11/14 02:42:01;;;;;;;19.77;12.80;;;2.30;99.90;;;;;;5026374;28;20685;-78
2022/11/14 02:44:27;;;;;;;18.83;12.10;;;2.30;99.90;;;;;;5026454;28;20357;-78
2022/11/14 02:46:53;;;;;;;18.80;12.23;;;2.30;99.90;;;;;;5026192;28;20186;-78
2022/11/14 02:49:19;;;;;;;17.63;11.47;;;2.30;99.90;;;;;;5009961;28;20711;-78
2022/11/14 02:51:44;;;;;;;21.60;13.37;;;2.50;99.90;;;;;;5009780;28;20214;-77
2022/11/14 02:54:10;;;;;;;18.03;11.53;;;2.50;99.90;;;;;;5009538;28;20357;-78
2022/11/14 02:56:36;;;;;;;22.90;11.63;;;2.40;99.90;;;;;;4993139;28;20247;-78
2022/11/14 02:59:02;;;;;;;16.63;8.93;;;2.50;99.90;;;;;;5009835;28;20251;-77
2022/11/14 03:01:28;;;;;;;9.50;7.00;;;2.60;99.90;;;;;;4993234;28;20235;-77
2022/11/14 03:03:53;;;;;;;11.93;8.20;;;2.90;99.90;;;;;;4993259;28;20199;-78
2022/11/14 03:06:19;;;;;;;11.47;7.73;;;3.00;99.90;;;;;;5011717;28;20190;-78
2022/11/14 03:08:45;;;;;;;8.80;6.77;;;3.10;99.90;;;;;;5013217;28;20187;-77
2022/11/14 03:11:10;;;;;;;8.93;5.93;;;3.20;99.90;;;;;;4996613;28;20211;-78
2022/11/14 03:13:36;;;;;;;8.80;6.47;;;3.30;99.90;;;;;;5029502;28;20225;-78
2022/11/14 03:16:10;;;;;;;8.53;6.37;;;3.50;99.90;;;;;;5012940;28;20212;-77
2022/11/14 03:18:36;;;;;;;7.70;6.40;;;3.60;99.90;;;;;;5045866;28;20469;-78
2022/11/14 03:21:14;;;;;;;7.20;6.30;;;3.70;99.90;;;;;;5029274;28;20188;-78
2022/11/14 03:23:40;;;;;;;8.37;6.30;;;3.90;99.90;;;;;;5045968;28;20422;-78
2022/11/14 03:26:08;;;;;;;9.70;6.30;;;4.10;99.90;;;;;;5013086;28;20434;-79
2022/11/14 03:28:34;;;;;;;11.07;6.30;;;4.20;99.90;;;;;;4996685;28;20191;-78
2022/11/14 03:31:00;;;;;;;7.97;6.23;;;4.30;99.90;;;;;;5045708;28;21064;-79
2022/11/14 03:33:25;;;;;;;8.57;6.50;;;4.30;99.90;;;;;;4996447;28;20433;-78
2022/11/14 03:35:51;;;;;;;8.70;6.37;;;4.40;99.90;;;;;;5012349;28;20763;-78
2022/11/14 03:38:18;;;;;;;7.60;5.77;;;4.40;99.90;;;;;;5045203;28;20261;-78
2022/11/14 03:40:44;;;;;;;7.00;5.33;;;4.50;99.90;;;;;;5028812;28;20418;-78
2022/11/14 03:43:10;;;;;;;7.20;5.77;;;4.50;99.90;;;;;;5028985;28;20427;-78
2022/11/14 03:45:36;;;;;;;7.27;5.53;;;4.50;99.90;;;;;;5028643;28;20579;-79
2022/11/14 03:48:03;;;;;;;6.47;5.20;;;4.80;99.90;;;;;;5028816;28;20426;-78
2022/11/14 03:50:29;;;;;;;8.17;6.27;;;4.80;99.90;;;;;;5029038;28;20419;-78
2022/11/14 03:52:54;;;;;;;7.77;5.63;;;4.90;99.90;;;;;;5028859;28;20507;-78
2022/11/14 03:55:20;;;;;;;8.37;6.50;;;4.80;99.90;;;;;;5012425;28;20211;-79
2022/11/14 03:57:46;;;;;;;15.53;6.87;;;4.90;99.90;;;;;;4996190;28;20191;-79
2022/11/14 04:00:12;;;;;;;8.57;6.57;;;5.00;99.90;;;;;;5028813;28;20198;-79
2022/11/14 04:02:38;;;;;;;7.70;6.03;;;5.00;99.90;;;;;;5028647;28;20183;-80
2022/11/14 04:05:03;;;;;;;8.03;6.50;;;5.10;99.90;;;;;;5028326;28;20454;-79
2022/11/14 04:07:29;;;;;;;8.23;6.17;;;5.20;99.90;;;;;;5012160;28;20271;-78
2022/11/14 04:09:55;;;;;;;10.10;7.07;;;5.40;99.90;;;;;;5028335;28;20458;-79
2022/11/14 04:12:20;;;;;;;8.03;5.90;;;5.50;99.90;;;;;;5012128;28;20686;-78
2022/11/14 04:14:46;;;;;;;7.80;5.90;;;5.60;99.90;;;;;;4995614;28;20209;-78
2022/11/14 04:17:12;;;;;;;7.93;6.30;;;5.60;99.90;;;;;;4995555;28;20192;-80
2022/11/14 04:19:38;;;;;;;11.33;6.40;;;5.70;99.90;;;;;;5044925;28;20208;-78
2022/11/14 04:22:03;;;;;;;7.53;6.23;;;5.70;99.90;;;;;;5011730;28;20476;-78
2022/11/14 04:24:29;;;;;;;10.33;7.23;;;5.90;99.90;;;;;;5011488;28;20663;-79
2022/11/14 04:26:55;;;;;;;8.60;6.93;;;5.90;99.90;;;;;;5011614;28;20188;-79
2022/11/14 04:29:20;;;;;;;8.00;6.20;;;5.90;99.90;;;;;;5028349;28;20185;-79
2022/11/14 04:31:46;;;;;;;12.53;7.00;;;6.00;99.90;;;;;;5011622;28;20653;-78
2022/11/14 04:34:11;;;;;;;10.00;7.03;;;6.30;99.90;;;;;;5011871;28;20212;-79
2022/11/14 04:36:37;;;;;;;8.20;6.60;;;6.10;99.90;;;;;;4995289;28;20187;-78
2022/11/14 04:39:03;;;;;;;7.73;5.90;;;6.10;99.90;;;;;;5028264;28;20223;-78
2022/11/14 04:41:28;;;;;;;7.90;6.13;;;6.20;99.90;;;;;;5011932;28;20278;-77
2022/11/14 04:43:54;;;;;;;10.70;6.10;;;6.20;99.90;;;;;;4995952;28;20190;-79
2022/11/14 04:46:20;;;;;;;9.20;6.33;;;6.30;99.90;;;;;;5012219;28;20184;-78
2022/11/14 04:48:45;;;;;;;8.97;6.60;;;6.20;99.90;;;;;;4996465;28;20216;-78
2022/11/14 04:51:11;;;;;;;10.57;7.20;;;6.20;99.90;;;;;;5012487;28;20214;-78
2022/11/14 04:53:36;;;;;;;12.47;7.67;;;6.30;99.90;;;;;;4995934;28;20192;-77
2022/11/14 04:56:02;;;;;;;9.07;5.67;;;6.20;99.90;;;;;;5027738;28;20714;-79
2022/11/14 04:58:28;;;;;;;7.93;5.53;;;6.20;99.90;;;;;;4994996;28;20208;-78
2022/11/14 05:00:56;;;;;;;10.23;6.90;;;6.20;99.90;;;;;;5012202;28;20482;-79
2022/11/14 05:03:22;;;;;;;8.53;6.30;;;6.30;99.90;;;;;;5012877;28;20189;-77
2022/11/14 05:05:48;;;;;;;7.60;5.97;;;6.30;99.90;;;;;;5011404;28;20447;-77
2022/11/14 05:08:14;;;;;;;9.83;6.77;;;6.40;99.90;;;;;;5027743;28;20430;-79
2022/11/14 05:10:44;;;;;;;9.13;6.40;;;6.40;99.90;;;;;;5011100;28;20477;-78
2022/11/14 05:13:11;;;;;;;9.47;6.20;;;6.50;99.90;;;;;;5027410;28;20664;-80
2022/11/14 05:15:38;;;;;;;9.57;6.83;;;6.50;99.90;;;;;;5042609;28;20439;-79
2022/11/14 05:18:04;;;;;;;8.77;6.35;;;6.50;99.90;;;;;;5026425;28;20466;-80
2022/11/14 05:20:29;;;;;;;10.50;6.43;;;6.50;99.90;;;;;;4993269;28;20194;-79
2022/11/14 05:22:57;;;;;;;7.40;6.03;;;6.80;99.90;;;;;;5009543;28;20198;-79
2022/11/14 05:25:24;;;;;;;8.00;6.00;;;6.60;99.90;;;;;;5025839;28;20677;-81
2022/11/14 05:27:50;;;;;;;9.43;6.17;;;6.60;99.90;;;;;;5009258;28;20805;-78
2022/11/14 05:30:17;;;;;;;10.63;6.70;;;6.60;99.90;;;;;;4993536;28;20427;-78
2022/11/14 05:32:43;;;;;;;8.40;6.70;;;6.70;99.90;;;;;;5009636;28;20443;-79
2022/11/14 05:35:09;;;;;;;7.77;6.10;;;6.80;99.90;;;;;;5042105;28;20542;-78
2022/11/14 05:37:35;;;;;;;9.00;6.17;;;6.90;99.90;;;;;;5025219;28;20431;-80
2022/11/14 05:40:02;;;;;;;10.43;7.27;;;7.00;99.90;;;;;;5025322;28;20423;-79
2022/11/14 05:42:28;;;;;;;10.77;6.47;;;7.00;99.90;;;;;;5025403;28;20192;-79
2022/11/14 05:44:53;;;;;;;8.37;5.80;;;7.10;99.90;;;;;;4992916;28;20504;-79
2022/11/14 05:47:19;;;;;;;9.43;6.20;;;7.30;99.90;;;;;;5008795;28;20192;-79
2022/11/14 05:49:45;;;;;;;9.60;6.17;;;7.40;99.90;;;;;;5025482;28;20192;-79
2022/11/14 05:52:10;;;;;;;9.97;6.33;;;7.40;99.90;;;;;;5009087;28;20193;-79
2022/11/14 05:54:36;;;;;;;5.83;4.70;;;7.40;99.90;;;;;;4992272;28;20260;-79
2022/11/14 05:57:02;;;;;;;9.80;6.57;;;7.60;99.90;;;;;;5008921;28;20197;-79
2022/11/14 05:59:27;;;;;;;7.53;5.70;;;7.60;99.90;;;;;;4992224;28;20216;-78
2022/11/14 06:01:54;;;;;;;10.40;7.27;;;7.70;99.90;;;;;;5008859;28;20561;-80
2022/11/14 06:04:22;;;;;;;8.80;6.13;;;7.70;99.90;;;;;;5009643;28;20242;-78
2022/11/14 06:06:47;;;;;;;9.00;6.70;;;7.80;99.90;;;;;;4992661;28;20435;-78
2022/11/14 06:09:13;;;;;;;9.70;6.10;;;7.90;99.90;;;;;;5024938;28;21065;-80
2022/11/14 06:11:39;;;;;;;9.83;6.27;;;7.80;99.90;;;;;;5024663;28;20702;-78
2022/11/14 06:14:05;;;;;;;9.67;7.20;;;7.70;99.90;;;;;;5008327;28;20782;-79
2022/11/14 06:16:30;;;;;;;9.83;7.33;;;7.60;99.90;;;;;;5008881;28;20181;-81
2022/11/14 06:18:56;;;;;;;11.50;7.20;;;7.70;99.90;;;;;;4992279;28;20761;-79
2022/11/14 06:21:23;;;;;;;8.77;6.97;;;7.70;99.90;;;;;;5008504;28;20184;-79
2022/11/14 06:23:50;;;;;;;11.40;7.17;;;7.80;99.90;;;;;;5041693;28;20253;-78
2022/11/14 06:26:23;;;;;;;12.03;8.63;;;7.80;99.90;;;;;;5041954;28;20502;-77
2022/11/14 06:28:50;;;;;;;11.30;7.80;;;7.80;99.90;;;;;;5042618;28;20431;-79
2022/11/14 06:31:16;;;;;;;15.63;8.53;;;7.80;99.90;;;;;;5025375;28;20431;-79
2022/11/14 06:33:42;;;;;;;12.93;8.43;;;7.70;99.90;;;;;;5027155;28;20510;-78
2022/11/14 06:36:08;;;;;;;11.00;7.40;;;7.80;99.90;;;;;;5009191;28;20432;-79
2022/11/14 06:38:36;;;;;;;10.03;7.60;;;7.80;99.90;;;;;;5008869;28;20554;-78
2022/11/14 06:41:12;;;;;;;12.60;7.97;;;7.90;99.90;;;;;;5027133;28;20510;-79
2022/11/14 06:43:40;;;;;;;12.13;7.77;;;7.80;99.90;;;;;;5029445;28;21075;-77
2022/11/14 06:46:08;;;;;;;12.27;7.80;;;7.90;99.90;;;;;;5045341;28;20475;-78
2022/11/14 06:48:36;;;;;;;11.67;8.27;;;7.90;99.90;;;;;;5030153;28;20415;-79
2022/11/14 06:51:03;;;;;;;9.90;7.60;;;7.90;99.90;;;;;;5028502;28;20475;-78
2022/11/14 06:53:31;;;;;;;11.60;7.20;;;8.00;99.90;;;;;;5045076;28;20882;-79
2022/11/14 06:56:04;;;;;;;9.03;6.97;;;8.00;99.90;;;;;;5045057;28;20447;-79
2022/11/14 06:58:33;;;;;;;11.33;7.80;;;8.10;99.90;;;;;;5028383;28;20837;-77
2022/11/14 07:01:13;;;;;;;8.43;6.30;;;8.00;99.90;;;;;;5028492;28;20423;-79
2022/11/14 07:03:40;;;;;;;10.30;7.90;;;8.10;99.90;;;;;;5028410;28;20489;-77
2022/11/14 07:06:08;;;;;;;10.33;6.97;;;8.20;99.90;;;;;;5032357;22;20843;-72
2022/11/14 07:08:33;;;;;;;9.10;6.40;;;8.10;99.90;;;;;;5009928;28;20506;-73
2022/11/14 07:11:08;;;;;;;10.53;7.17;;;8.10;99.90;;;;;;5008325;28;20451;-73
2022/11/14 07:13:35;;;;;;;9.87;6.43;;;8.20;99.90;;;;;;5008225;28;20184;-73
2022/11/14 07:16:01;;;;;;;9.00;6.77;;;8.30;99.90;;;;;;5009901;28;20421;-74
2022/11/14 07:18:30;;;;;;;8.40;5.87;;;8.50;99.90;;;;;;5009561;28;20613;-73
2022/11/14 07:21:04;;;;;;;8.97;6.57;;;8.60;99.90;;;;;;5009850;28;20506;-74
2022/11/14 07:23:31;;;;;;;11.73;6.10;;;8.70;99.90;;;;;;5009647;28;20540;-73
2022/11/14 07:26:08;;;;;;;7.00;5.67;;;8.70;99.90;;;;;;5008527;28;21291;-73
2022/11/14 07:28:39;;;;;;;8.37;5.90;;;8.80;99.90;;;;;;5009647;28;20438;-73
2022/11/14 07:31:11;;;;;;;6.57;4.97;;;8.90;99.90;;;;;;5008493;28;20837;-72
2022/11/14 07:33:37;;;;;;;6.00;4.90;;;9.00;99.90;;;;;;5007786;28;20459;-72
2022/11/14 07:36:03;;;;;;;10.00;5.37;;;9.00;99.90;;;;;;5009456;28;20434;-71
2022/11/14 07:38:34;;;;;;;5.67;4.60;;;9.10;99.90;;;;;;5009901;28;20567;-71
2022/11/14 07:41:10;;;;;;;7.63;5.30;;;9.10;99.90;;;;;;5009409;28;20876;-71
2022/11/14 07:43:36;;;;;;;5.57;4.43;;;9.10;99.90;;;;;;5009333;28;20424;-72
2022/11/14 07:46:06;;;;;;;6.20;4.23;;;9.20;99.90;;;;;;5009142;28;20420;-72
2022/11/14 07:48:33;;;;;;;5.13;3.43;;;9.20;99.90;;;;;;5007505;28;20428;-71
2022/11/14 07:50:59;;;;;;;4.03;3.53;;;9.30;99.90;;;;;;5008916;28;20506;-72
2022/11/14 07:53:25;;;;;;;4.50;3.67;;;9.40;99.90;;;;;;4991169;28;20529;-71
2022/11/14 07:55:51;;;;;;;5.43;4.47;;;9.40;99.90;;;;;;5008853;28;20447;-71
2022/11/14 07:58:16;;;;;;;10.50;5.33;;;9.40;99.90;;;;;;5007539;28;20460;-72
2022/11/14 08:00:42;;;;;;;4.17;2.90;;;9.40;99.90;;;;;;5007640;28;20262;-72
2022/11/14 08:03:08;;;;;;;5.80;2.70;;;9.40;99.90;;;;;;4991090;28;20287;-73
2022/11/14 08:05:34;;;;;;;2.60;2.40;;;9.50;99.90;;;;;;5008734;28;20213;-73
2022/11/14 08:08:00;;;;;;;3.93;2.30;;;9.50;99.90;;;;;;5007103;28;20433;-73
2022/11/14 08:10:25;;;;;;;3.17;2.90;;;9.40;99.90;;;;;;5009029;28;20450;-74
2022/11/14 08:13:02;;;;;;;1.77;1.67;;;9.30;99.90;;;;;;5007211;28;20695;-74
2022/11/14 08:15:28;;;;;;;1.60;1.50;;;9.40;99.90;;;;;;5008680;28;20631;-74
2022/11/14 08:17:58;;;;;;;4.37;1.70;;;9.50;99.90;;;;;;5006999;28;20460;-73
2022/11/14 08:20:25;;;;;;;2.57;2.10;;;9.60;99.90;;;;;;5008482;28;20242;-74
2022/11/14 08:23:00;;;;;;;1.80;1.10;;;9.70;99.90;;;;;;5008812;28;20421;-75
2022/11/14 08:25:26;;;;;;;4.13;2.03;;;9.60;99.90;;;;;;5008675;28;20902;-75
2022/11/14 08:27:52;;;;;;;2.93;2.07;;;9.60;99.90;;;;;;5008551;28;20424;-75
2022/11/14 08:30:18;;;;;;;1.70;1.23;;;9.60;99.90;;;;;;5008517;28;20691;-75
2022/11/14 08:32:44;;;;;;;1.50;1.40;;;9.50;99.90;;;;;;5008576;28;20456;-74
2022/11/14 08:35:11;;;;;;;3.33;1.67;;;9.50;99.90;;;;;;5007099;28;20579;-75
2022/11/14 08:37:36;;;;;;;1.20;1.10;;;9.60;99.90;;;;;;5008313;28;20178;-74
2022/11/14 08:40:03;;;;;;;2.90;1.00;;;9.50;99.90;;;;;;5008403;28;21041;-75
2022/11/14 08:42:28;;;;;;;2.30;0.90;;;9.50;99.90;;;;;;5006870;28;20368;-74
2022/11/14 08:44:56;;;;;;;1.40;1.30;;;9.50;99.90;;;;;;5008433;28;20527;-74
2022/11/14 08:47:22;;;;;;;3.30;1.40;;;9.50;99.90;;;;;;5006599;28;20700;-74
2022/11/14 08:49:47;;;;;;;4.40;1.47;;;9.40;99.90;;;;;;5006473;28;20504;-75
2022/11/14 08:52:13;;;;;;;2.03;1.50;;;9.30;99.90;;;;;;5006466;28;20264;-74
2022/11/14 08:54:39;;;;;;;2.67;1.80;;;9.20;99.90;;;;;;5006332;28;20203;-75
2022/11/14 08:57:05;;;;;;;1.67;1.40;;;9.20;99.90;;;;;;5006655;28;20627;-74
2022/11/14 08:59:31;;;;;;;1.70;1.07;;;9.20;99.90;;;;;;5006398;28;20221;-73
2022/11/14 09:01:57;;;;;;;3.73;1.17;;;9.20;99.90;;;;;;5006479;28;20479;-73
2022/11/14 09:04:22;;;;;;;1.73;1.40;;;9.10;99.90;;;;;;5005543;28;20956;-73
2022/11/14 09:06:48;;;;;;;2.70;1.13;;;9.10;99.90;;;;;;5007663;28;20217;-73
2022/11/14 09:09:14;;;;;;;1.40;1.30;;;9.10;99.90;;;;;;5007832;28;20276;-73
2022/11/14 09:11:40;;;;;;;2.63;1.07;;;9.10;99.90;;;;;;5006309;28;20912;-73
2022/11/14 09:14:06;;;;;;;1.30;1.20;;;9.10;99.90;;;;;;4989617;28;20237;-73
2022/11/14 09:16:32;;;;;;;2.10;1.13;;;9.20;99.90;;;;;;5006359;28;20283;-73
2022/11/14 09:18:58;;;;;;;1.50;1.07;;;9.10;99.90;;;;;;5005734;28;20988;-72
2022/11/14 09:21:24;;;;;;;1.20;1.10;;;9.20;99.90;;;;;;5007667;28;20432;-73
2022/11/14 09:23:50;;;;;;;1.20;1.10;;;9.20;99.90;;;;;;5006082;28;20468;-74
2022/11/14 09:26:17;;;;;;;1.57;1.20;;;9.20;99.90;;;;;;5006369;28;20544;-74
2022/11/14 09:28:43;;;;;;;1.20;0.90;;;9.30;99.90;;;;;;5007820;28;20182;-76
2022/11/14 09:31:11;;;;;;;3.13;1.33;;;9.40;99.90;;;;;;5005929;28;20819;-73
2022/11/14 09:33:37;;;;;;;1.97;1.17;;;9.40;99.90;;;;;;5005593;28;20433;-73
2022/11/14 09:36:05;;;;;;;1.30;1.20;;;9.30;99.90;;;;;;5007584;28;20435;-73
2022/11/14 09:38:31;;;;;;;3.00;1.80;;;9.30;99.90;;;;;;5005935;28;20526;-75
2022/11/14 09:41:28;;;;;;;1.07;0.87;;;9.30;99.90;;;;;;5006205;28;20928;-75
2022/11/14 09:44:06;;;;;;;1.43;1.00;;;9.30;99.90;;;;;;5005646;28;20206;-74
2022/11/14 09:46:41;;;;;;;1.40;1.17;;;9.30;99.90;;;;;;5007318;28;20427;-71
2022/11/14 09:49:22;;;;;;;0.97;0.87;;;9.30;99.90;;;;;;5007249;28;20420;-74
2022/11/14 09:51:53;;;;;;;1.30;1.20;;;9.40;99.90;;;;;;5008101;28;20411;-74
2022/11/14 09:54:23;;;;;;;2.63;0.90;;;9.50;99.90;;;;;;5006357;28;20462;-73
2022/11/14 09:56:48;;;;;;;1.20;1.00;;;9.60;99.90;;;;;;5007725;28;20428;-73
2022/11/14 09:59:14;;;;;;;2.60;0.90;;;9.60;99.90;;;;;;5006222;28;20629;-74
2022/11/14 10:01:55;;;;;;;3.33;0.80;;;9.70;99.90;;;;;;5006262;28;20441;-73
2022/11/14 10:04:43;;;;;;;0.80;0.60;;;9.80;99.90;;;;;;5005844;28;20462;-72
2022/11/14 10:07:39;;;;;;;0.90;0.70;;;9.90;99.90;;;;;;5007680;28;20429;-74
2022/11/14 10:10:52;;;;;;;1.00;0.77;;;9.90;99.90;;;;;;5007287;28;20421;-75
2022/11/14 10:13:32;;;;;;;0.90;0.70;;;9.90;99.90;;;;;;4963218;28;20929;-73
2022/11/14 10:16:22;;;;;;;1.60;1.30;;;10.00;99.90;;;;;;5009383;28;20933;-74
2022/11/14 10:19:22;;;;;;;1.30;1.20;;;10.10;99.90;;;;;;5011436;28;20452;-73
2022/11/14 10:22:14;;;;;;;1.30;0.80;;;10.10;99.90;;;;;;5011296;28;20936;-73
2022/11/14 10:25:00;;;;;;;1.80;0.60;;;10.20;99.90;;;;;;5011310;28;20520;-73
2022/11/14 10:27:54;;;;;;;0.90;0.67;;;10.20;99.90;;;;;;5011122;28;20415;-74
2022/11/14 10:30:19;;;;;;;1.10;1.00;;;10.20;99.90;;;;;;4972078;28;20435;-73
2022/11/14 10:33:14;;;;;;;2.17;1.30;;;10.20;99.90;;;;;;5011144;28;20441;-73
2022/11/14 10:35:46;;;;;;;5.37;2.20;;;10.30;99.90;;;;;;4975312;28;20281;-73
2022/11/14 10:38:30;;;;;;;1.00;0.80;;;10.20;99.90;;;;;;5010945;28;20459;-73
2022/11/14 10:41:03;;;;;;;1.40;0.93;;;10.30;99.90;;;;;;5010829;28;20490;-73
2022/11/14 10:43:32;;;;;;;1.10;0.80;;;10.30;99.90;;;;;;5011396;28;20522;-73
2022/11/14 10:46:13;;;;;;;0.83;0.80;;;10.30;99.90;;;;;;5009896;28;20416;-73
2022/11/14 10:48:46;;;;;;;1.17;1.07;;;10.40;99.90;;;;;;5009912;28;20772;-74
2022/11/14 10:51:27;;;;;;;1.20;1.10;;;10.40;99.90;;;;;;5011584;28;20430;-74
2022/11/14 10:54:05;;;;;;;1.30;1.00;;;10.40;99.90;;;;;;5011433;28;20438;-73
2022/11/14 10:56:31;;;;;;;1.50;1.00;;;10.50;99.90;;;;;;5011698;28;20611;-74
2022/11/14 10:58:57;;;;;;;0.90;0.80;;;10.50;99.90;;;;;;5011581;28;20453;-74
2022/11/14 11:01:42;;;;;;;2.17;0.90;;;10.60;99.90;;;;;;5011683;28;20828;-74
2022/11/14 11:04:26;;;;;;;0.83;0.60;;;10.70;99.90;;;;;;5009986;28;20198;-73
2022/11/14 11:11:28;;;;;;;1.57;1.03;;;10.80;99.90;;;;;;5009852;28;20436;-75
2022/11/14 11:12:48;;;;;;;1.33;0.97;;;10.90;99.90;;;;;;5009819;28;20475;-73
2022/11/14 11:15:18;;;;;;;1.00;0.90;;;11.00;99.90;;;;;;5009395;28;20457;-73
2022/11/14 11:17:54;;;;;;;2.03;0.80;;;11.00;99.90;;;;;;5011286;28;20822;-73
2022/11/14 11:20:37;;;;;;;1.20;1.00;;;11.00;99.90;;;;;;5011179;28;20743;-73
2022/11/14 11:23:04;;;;;;;1.30;1.10;;;11.10;99.90;;;;;;5010974;28;21000;-74
2022/11/14 11:25:32;;;;;;;1.17;1.00;;;11.10;99.90;;;;;;5010455;28;20437;-73
2022/11/14 11:28:18;;;;;;;1.87;1.20;;;11.20;99.90;;;;;;5010130;28;20414;-73
2022/11/14 11:30:59;;;;;;;2.10;1.30;;;11.20;99.90;;;;;;5010344;28;20413;-72
2022/11/14 11:33:30;;;;;;;1.20;1.10;;;11.20;99.90;;;;;;5008745;28;20775;-73
2022/11/14 11:36:00;;;;;;;3.57;1.00;;;11.10;99.90;;;;;;5010103;28;20925;-73
2022/11/14 11:38:28;;;;;;;1.07;0.97;;;11.00;99.90;;;;;;5010028;28;20450;-73
2022/11/14 11:41:10;;;;;;;1.23;1.13;;;11.00;99.90;;;;;;5010178;28;20445;-73
2022/11/14 11:43:58;;;;;;;1.57;0.90;;;10.90;99.90;;;;;;5010089;28;20430;-73
2022/11/14 11:46:53;;;;;;;0.80;0.80;;;10.80;99.90;;;;;;5010062;28;20896;-75
2022/11/14 11:49:46;;;;;;;1.37;1.00;;;10.90;99.90;;;;;;5010472;28;20437;-74
2022/11/14 11:52:32;;;;;;;2.97;1.23;;;10.80;99.90;;;;;;5010291;28;20528;-74
2022/11/14 11:55:04;;;;;;;1.00;0.90;;;10.80;99.90;;;;;;5010016;28;20443;-73
2022/11/14 11:57:35;;;;;;;1.30;1.20;;;10.80;99.90;;;;;;5008462;28;20968;-73
2022/11/14 12:00:15;;;;;;;4.30;0.97;;;10.80;99.90;;;;;;5009922;28;20820;-74
2022/11/14 12:02:45;;;;;;;1.00;0.83;;;10.90;99.90;;;;;;5009554;28;20442;-73
2022/11/14 12:05:26;;;;;;;2.07;1.10;;;10.90;99.90;;;;;;5009452;28;20627;-73
2022/11/14 12:07:57;;;;;;;3.83;1.20;;;10.90;99.90;;;;;;5009065;28;20801;-73
2022/11/14 12:10:29;;;;;;;1.10;1.00;;;11.00;99.90;;;;;;5009325;28;20842;-73
2022/11/14 12:13:22;;;;;;;1.60;1.20;;;11.00;99.90;;;;;;5009274;28;20420;-72
2022/11/14 12:15:58;;;;;;;3.23;0.73;;;11.00;99.90;;;;;;5008967;28;20446;-72
2022/11/14 12:18:30;;;;;;;1.50;0.90;;;11.20;99.90;;;;;;5007805;28;20934;-72
2022/11/14 12:21:09;;;;;;;1.57;1.47;;;11.20;99.90;;;;;;5009095;28;20429;-72
2022/11/14 12:24:12;;;;;;;1.17;0.90;;;11.20;99.90;;;;;;5009073;28;20414;-73
2022/11/14 12:26:56;;;;;;;0.93;0.83;;;11.30;99.90;;;;;;5009260;28;20512;-72
2022/11/14 12:29:43;;;;;;;1.93;0.97;;;11.40;99.90;;;;;;5009432;28;20497;-73
2022/11/14 12:32:15;;;;;;;0.97;0.73;;;11.50;99.90;;;;;;5009445;28;20421;-73
2022/11/14 12:34:44;;;;;;;1.47;0.97;;;11.60;99.90;;;;;;5009378;28;20546;-72
2022/11/14 12:37:28;;;;;;;3.00;2.70;;;11.90;99.90;;;;;;5009061;28;20460;-72
2022/11/14 12:40:06;;;;;;;3.00;0.80;;;12.20;99.90;;;;;;5009103;28;20465;-73
2022/11/14 12:42:32;;;;;;;16.97;3.40;;;12.40;99.90;;;;;;5009472;28;20946;-73
2022/11/14 12:44:58;;;;;;;1.93;1.20;;;12.40;99.90;;;;;;5008073;28;20443;-73
2022/11/14 12:47:25;;;;;;;1.40;1.00;;;12.40;99.90;;;;;;5008047;28;20442;-73
2022/11/14 12:49:51;;;;;;;2.60;0.90;;;12.20;99.90;;;;;;5007971;28;20184;-72
2022/11/14 12:52:39;;;;;;;1.27;1.17;;;12.20;99.90;;;;;;5007749;28;20716;-74
2022/11/14 12:55:24;;;;;;;1.70;1.60;;;12.10;99.90;;;;;;5009205;28;20673;-73
2022/11/14 12:58:07;;;;;;;1.57;1.17;;;12.10;99.90;;;;;;5008832;28;20425;-73
2022/11/14 13:00:45;;;;;;;2.53;1.27;;;12.10;99.90;;;;;;5007440;28;20443;-73
2022/11/14 13:03:23;;;;;;;1.20;1.07;;;12.20;99.90;;;;;;5008971;28;20482;-74